Time;durP1;ratioP1;P1;durP2;ratioP2;P2;SDS_P1;SDS_P2;PMS_P1;PMS_P2;Temp;Humidity;BMP_temperature;BMP_pressure;BME280_temperature;BME280_humidity;BME280_pressure;Samples;Min_cycle;Max_cycle;Signal;HPM_P1;HPM_P2
2021/04/18 00:02:09;;;;;;;9.98;3.92;;;;;;;4.88;69.55;102360.16;5011662;28;20069;-48
2021/04/18 00:04:36;;;;;;;10.43;3.80;;;;;;;4.79;69.44;102358.59;5012440;28;20054;-47
2021/04/18 00:07:03;;;;;;;10.15;3.67;;;;;;;4.85;69.61;102352.41;5011400;28;20041;-47
2021/04/18 00:09:29;;;;;;;11.15;3.92;;;;;;;4.84;69.78;102351.56;5028210;28;20527;-50
2021/04/18 00:11:55;;;;;;;14.48;4.18;;;;;;;4.77;70.25;102355.13;5011233;28;20046;-46
2021/04/18 00:14:24;;;;;;;11.90;5.03;;;;;;;4.79;69.53;102363.81;5010591;28;20069;-49
2021/04/18 00:16:51;;;;;;;10.70;3.75;;;;;;;4.77;69.78;102365.56;5012024;28;20042;-47
2021/04/18 00:19:18;;;;;;;13.48;3.88;;;;;;;4.80;69.07;102365.53;5012712;28;20057;-47
2021/04/18 00:21:44;;;;;;;16.13;4.70;;;;;;;4.74;69.68;102368.22;4995262;28;20065;-51
2021/04/18 00:24:11;;;;;;;15.70;4.40;;;;;;;4.75;70.16;102380.38;5012848;28;20049;-48
2021/04/18 00:26:37;;;;;;;10.85;4.30;;;;;;;4.80;69.32;102372.47;5009796;28;20038;-50
2021/04/18 00:29:03;;;;;;;13.63;4.22;;;;;;;4.82;69.80;102371.56;5010294;28;20126;-52
2021/04/18 00:31:30;;;;;;;11.40;4.07;;;;;;;4.63;70.81;102373.59;5011674;28;20396;-53
2021/04/18 00:33:56;;;;;;;12.57;4.75;;;;;;;4.56;71.47;102378.06;4993728;28;20053;-50
2021/04/18 00:36:28;;;;;;;11.13;4.20;;;;;;;4.55;70.72;102380.69;5010785;28;20042;-50
2021/04/18 00:38:55;;;;;;;14.73;4.53;;;;;;;4.52;71.24;102371.16;5011459;28;20050;-49
2021/04/18 00:41:21;;;;;;;11.52;4.55;;;;;;;4.54;71.44;102368.53;5010196;28;20052;-47
2021/04/18 00:43:47;;;;;;;13.45;4.22;;;;;;;4.63;70.95;102367.56;5010843;28;20072;-48
2021/04/18 00:46:13;;;;;;;12.10;4.68;;;;;;;4.55;71.20;102359.84;5027427;28;20038;-50
2021/04/18 00:48:41;;;;;;;10.98;4.50;;;;;;;4.56;71.19;102358.97;4994963;28;20052;-50
2021/04/18 00:51:10;;;;;;;12.27;4.88;;;;;;;4.51;71.52;102363.38;5009182;28;20049;-48
2021/04/18 00:53:37;;;;;;;12.70;4.93;;;;;;;4.48;71.39;102358.22;5008713;28;20054;-50
2021/04/18 00:56:05;;;;;;;13.95;5.72;;;;;;;4.48;71.14;102358.22;5025855;28;20427;-48
2021/04/18 00:58:32;;;;;;;11.27;4.68;;;;;;;4.46;71.20;102362.59;5009429;28;20042;-52
2021/04/18 01:00:59;;;;;;;13.30;4.63;;;;;;;4.46;71.28;102367.78;5009054;28;20093;-48
2021/04/18 01:03:25;;;;;;;11.30;4.20;;;;;;;4.37;71.83;102367.03;5009130;28;20054;-50
2021/04/18 01:05:51;;;;;;;12.43;4.93;;;;;;;4.36;71.91;102367.06;5008291;28;20050;-50
2021/04/18 01:08:18;;;;;;;12.63;4.78;;;;;;;4.33;71.66;102365.38;5009157;28;20519;-47
2021/04/18 01:10:44;;;;;;;11.80;4.43;;;;;;;4.30;71.99;102368.03;5008011;28;20509;-52
2021/04/18 01:13:11;;;;;;;13.15;4.80;;;;;;;4.25;72.42;102361.16;5010434;28;20062;-48
2021/04/18 01:15:37;;;;;;;13.02;4.47;;;;;;;4.22;72.26;102351.66;5009369;28;20056;-47
2021/04/18 01:18:03;;;;;;;10.52;4.38;;;;;;;4.26;71.90;102348.13;5025245;28;20053;-49
2021/04/18 01:20:30;;;;;;;13.95;4.90;;;;;;;4.20;72.38;102343.88;4976175;28;20046;-48
2021/04/18 01:22:56;;;;;;;15.02;4.78;;;;;;;4.16;72.75;102350.00;4992167;28;20412;-47
2021/04/18 01:25:23;;;;;;;10.65;5.05;;;;;;;4.08;73.15;102341.44;5010225;28;20041;-47
2021/04/18 01:27:50;;;;;;;14.52;5.18;;;;;;;4.03;73.69;102346.69;5008951;28;20394;-52
2021/04/18 01:30:19;;;;;;;14.93;5.38;;;;;;;3.98;74.04;102339.84;5010227;28;20064;-47
2021/04/18 01:32:50;;;;;;;15.75;5.40;;;;;;;3.86;74.41;102339.13;5008844;28;20385;-53
2021/04/18 01:35:17;;;;;;;14.13;5.22;;;;;;;3.82;74.62;102334.00;5011709;28;20065;-46
2021/04/18 01:37:44;;;;;;;17.13;5.53;;;;;;;3.82;74.74;102336.59;5010634;28;20561;-49
2021/04/18 01:40:13;;;;;;;13.00;4.75;;;;;;;3.85;74.87;102333.94;5008659;28;20061;-51
2021/04/18 01:42:40;;;;;;;14.50;5.53;;;;;;;3.77;75.29;102336.63;4996773;28;20531;-50
2021/04/18 01:45:08;;;;;;;11.98;5.65;;;;;;;3.80;75.13;102336.59;5012527;28;20046;-50
2021/04/18 01:47:34;;;;;;;11.82;5.22;;;;;;;3.76;75.95;102329.69;5009528;28;20038;-48
2021/04/18 01:50:01;;;;;;;17.60;5.57;;;;;;;3.70;76.39;102330.66;5008771;28;20516;-46
2021/04/18 01:52:28;;;;;;;12.48;5.10;;;;;;;3.69;76.42;102328.91;5019147;28;20054;-49
2021/04/18 01:54:54;;;;;;;13.20;4.97;;;;;;;3.72;75.49;102323.69;5012598;28;20596;-49
2021/04/18 01:57:20;;;;;;;16.15;5.03;;;;;;;3.73;75.74;102327.16;5012804;28;20045;-49
2021/04/18 01:59:47;;;;;;;14.35;5.75;;;;;;;3.69;76.41;102315.91;5012374;28;20046;-46
2021/04/18 02:02:14;;;;;;;15.15;5.68;;;;;;;3.61;76.43;102322.94;5011540;28;20050;-47
2021/04/18 02:04:41;;;;;;;13.57;5.20;;;;;;;3.55;76.82;102317.84;5012338;28;20038;-50
2021/04/18 02:07:08;;;;;;;12.10;5.57;;;;;;;3.52;75.92;102317.88;5011844;28;20741;-48
2021/04/18 02:09:36;;;;;;;11.82;5.35;;;;;;;3.64;75.45;102316.84;5012301;28;20501;-48
2021/04/18 02:12:08;;;;;;;14.35;5.38;;;;;;;3.68;75.31;102315.94;5012426;28;20509;-49
2021/04/18 02:14:35;;;;;;;12.13;5.00;;;;;;;3.67;74.83;102317.69;5012996;28;21790;-46
2021/04/18 02:17:02;;;;;;;18.45;6.13;;;;;;;3.68;74.82;102318.53;5013156;28;20046;-48
2021/04/18 02:19:29;;;;;;;15.50;5.43;;;;;;;3.71;74.72;102310.72;5012407;28;20056;-50
2021/04/18 02:21:56;;;;;;;16.27;5.40;;;;;;;3.60;74.72;102305.63;5012986;28;20060;-51
2021/04/18 02:24:23;;;;;;;15.63;5.32;;;;;;;3.53;75.57;102309.16;5012298;28;20046;-47
2021/04/18 02:26:49;;;;;;;14.85;5.50;;;;;;;3.59;75.48;102311.72;5011948;28;20485;-48
2021/04/18 02:29:16;;;;;;;13.75;5.60;;;;;;;3.57;74.86;102313.47;5011804;28;20064;-47
2021/04/18 02:31:43;;;;;;;11.00;5.57;;;;;;;3.51;75.38;102314.41;5004329;28;20396;-48
2021/04/18 02:34:10;;;;;;;15.02;5.80;;;;;;;3.48;75.66;102304.03;5011999;28;20125;-52
2021/04/18 02:36:37;;;;;;;14.95;5.43;;;;;;;3.50;75.42;102310.06;5010033;28;20503;-48
2021/04/18 02:39:05;;;;;;;12.05;5.28;;;;;;;3.46;75.81;102312.75;5011754;28;20508;-48
2021/04/18 02:41:32;;;;;;;17.67;5.20;;;;;;;3.41;76.17;102325.81;5011501;28;20056;-49
2021/04/18 02:43:58;;;;;;;13.30;5.88;;;;;;;3.30;76.89;102319.84;5012595;28;20365;-47
2021/04/18 02:46:25;;;;;;;14.50;6.18;;;;;;;3.16;77.55;102315.69;5011335;28;20389;-50
2021/04/18 02:48:51;;;;;;;14.48;7.15;;;;;;;3.19;76.71;102315.63;5004215;28;20038;-50
2021/04/18 02:51:17;;;;;;;17.02;5.70;;;;;;;3.13;77.67;102326.09;5011206;28;20046;-49
2021/04/18 02:53:44;;;;;;;11.85;5.88;;;;;;;3.08;78.19;102317.50;5010470;28;20042;-48
2021/04/18 02:56:10;;;;;;;15.80;6.35;;;;;;;3.01;78.95;102313.22;5012105;28;20501;-50
2021/04/18 02:58:36;;;;;;;16.67;5.68;;;;;;;2.98;78.84;102311.50;5010636;28;20053;-50
2021/04/18 03:01:03;;;;;;;16.50;6.72;;;;;;;3.03;78.56;102311.47;5012353;28;20057;-52
2021/04/18 03:03:30;;;;;;;16.95;6.50;;;;;;;3.10;78.20;102317.47;5011077;28;20112;-52
2021/04/18 03:05:56;;;;;;;16.38;7.72;;;;;;;3.10;78.71;102322.69;5011397;28;20103;-50
2021/04/18 03:08:23;;;;;;;10.80;5.38;;;;;;;3.11;78.19;102311.38;5011469;28;20064;-47
2021/04/18 03:10:49;;;;;;;17.08;6.32;;;;;;;3.08;78.27;102319.22;5011148;28;20049;-48
2021/04/18 03:13:15;;;;;;;18.00;6.78;;;;;;;3.10;77.88;102315.72;5011758;28;20053;-48
2021/04/18 03:15:43;;;;;;;11.25;5.63;;;;;;;3.11;78.68;102313.97;5009897;28;20412;-48
2021/04/18 03:18:10;;;;;;;16.02;6.30;;;;;;;3.20;77.97;102317.38;5011978;28;20053;-53
2021/04/18 03:20:36;;;;;;;15.20;6.40;;;;;;;3.10;77.98;102320.94;5010137;28;20104;-48
2021/04/18 03:23:02;;;;;;;11.55;5.40;;;;;;;3.14;77.47;102312.22;5010547;28;20042;-48
2021/04/18 03:25:29;;;;;;;18.20;6.32;;;;;;;3.13;78.03;102309.66;5010642;28;20501;-49
2021/04/18 03:27:55;;;;;;;14.75;5.80;;;;;;;3.09;77.22;102302.75;5008957;28;20390;-51
2021/04/18 03:30:22;;;;;;;14.13;6.13;;;;;;;3.08;78.17;102307.09;5025146;28;20049;-47
2021/04/18 03:32:48;;;;;;;14.70;6.10;;;;;;;3.05;78.11;102307.09;5009970;28;20034;-47
2021/04/18 03:35:15;;;;;;;14.35;6.20;;;;;;;3.05;77.98;102301.91;5011336;28;20049;-48
2021/04/18 03:37:42;;;;;;;18.63;7.30;;;;;;;3.02;78.26;102299.34;5010881;28;20401;-47
2021/04/18 03:40:09;;;;;;;11.65;5.85;;;;;;;3.02;78.45;102291.56;5003917;28;20037;-49
2021/04/18 03:42:35;;;;;;;13.80;6.15;;;;;;;3.13;77.71;102294.88;5011533;28;20088;-49
2021/04/18 03:45:04;;;;;;;15.68;6.88;;;;;;;3.09;77.81;102292.34;5010359;28;20041;-47
2021/04/18 03:47:30;;;;;;;13.20;5.82;;;;;;;3.08;77.71;102291.50;5006585;28;20057;-51
2021/04/18 03:49:57;;;;;;;24.27;6.68;;;;;;;3.07;77.69;102287.19;5009412;28;20050;-49
2021/04/18 03:52:24;;;;;;;14.02;6.30;;;;;;;2.99;78.65;102292.44;5008208;28;20042;-47
2021/04/18 03:54:50;;;;;;;16.33;7.40;;;;;;;2.94;78.63;102290.78;5010256;28;20046;-47
2021/04/18 03:57:17;;;;;;;16.58;6.95;;;;;;;2.94;78.79;102293.38;5010942;28;20042;-48
2021/04/18 03:59:43;;;;;;;14.43;7.00;;;;;;;2.92;78.73;102300.31;5010230;28;20401;-48
2021/04/18 04:02:09;;;;;;;14.88;6.43;;;;;;;2.93;78.51;102294.25;5010221;28;20529;-48
2021/04/18 04:04:36;;;;;;;17.42;5.95;;;;;;;2.99;77.92;102291.59;5009594;28;20495;-46
2021/04/18 04:07:03;;;;;;;14.32;5.80;;;;;;;3.00;77.69;102288.97;5008837;28;20509;-49
2021/04/18 04:09:29;;;;;;;15.77;6.30;;;;;;;2.93;77.96;102296.84;5010460;28;20473;-49
2021/04/18 04:11:56;;;;;;;16.17;7.20;;;;;;;2.80;78.77;102296.97;5009522;28;20408;-48
2021/04/18 04:14:22;;;;;;;20.38;7.38;;;;;;;2.72;78.60;102303.97;5011448;28;20076;-50
2021/04/18 04:16:49;;;;;;;17.42;6.45;;;;;;;2.63;79.10;102294.53;5009908;28;20042;-49
2021/04/18 04:19:15;;;;;;;19.95;6.63;;;;;;;2.72;79.69;102309.16;5010734;28;20183;-46
2021/04/18 04:21:42;;;;;;;15.30;6.63;;;;;;;2.71;78.59;102302.25;5010301;28;20548;-50
2021/04/18 04:24:08;;;;;;;13.32;6.15;;;;;;;2.72;78.25;102303.97;4991974;28;20031;-45
2021/04/18 04:26:35;;;;;;;15.02;6.93;;;;;;;2.69;79.01;102304.00;5009673;28;20049;-47
2021/04/18 04:29:01;;;;;;;16.67;6.68;;;;;;;2.78;77.14;102309.13;5007858;28;20507;-46
2021/04/18 04:31:27;;;;;;;16.67;6.50;;;;;;;2.65;78.26;102316.16;5009215;28;20058;-47
2021/04/18 04:33:54;;;;;;;16.27;6.60;;;;;;;2.52;79.06;102310.19;5009765;28;20080;-46
2021/04/18 04:36:21;;;;;;;16.63;6.15;;;;;;;2.58;78.23;102314.47;5010224;28;20535;-48
2021/04/18 04:38:48;;;;;;;12.32;6.20;;;;;;;2.57;78.73;102309.31;5010561;28;20057;-48
2021/04/18 04:41:14;;;;;;;13.70;6.07;;;;;;;2.60;77.36;102317.91;5008461;28;20133;-49
2021/04/18 04:43:41;;;;;;;15.27;6.65;;;;;;;2.55;77.74;102317.13;5010499;28;20049;-48
2021/04/18 04:46:07;;;;;;;16.17;6.82;;;;;;;2.56;78.46;102323.16;5009667;28;20042;-45
2021/04/18 04:48:33;;;;;;;16.83;7.07;;;;;;;2.61;78.00;102321.41;5010730;28;20534;-50
2021/04/18 04:51:00;;;;;;;17.60;7.05;;;;;;;2.67;77.95;102326.53;5007761;28;20490;-47
2021/04/18 04:53:26;;;;;;;14.82;6.32;;;;;;;2.56;78.22;102318.81;5009906;28;20052;-50
2021/04/18 04:55:52;;;;;;;17.60;7.28;;;;;;;2.42;79.36;102321.53;5009581;28;20045;-46
2021/04/18 04:58:19;;;;;;;15.25;7.38;;;;;;;2.40;79.32;102331.06;5009175;28;20058;-46
2021/04/18 05:00:45;;;;;;;13.95;6.28;;;;;;;2.39;79.27;102329.34;5008299;28;20058;-46
2021/04/18 05:03:11;;;;;;;14.82;6.30;;;;;;;2.42;78.97;102329.31;5009113;28;20069;-48
2021/04/18 05:05:38;;;;;;;16.63;6.57;;;;;;;2.51;78.88;102321.47;5008912;28;20073;-48
2021/04/18 05:08:04;;;;;;;18.17;7.05;;;;;;;2.53;79.04;102324.88;5009709;28;20041;-48
2021/04/18 05:10:31;;;;;;;14.32;6.43;;;;;;;2.56;78.81;102318.81;5009251;28;20513;-48
2021/04/18 05:12:58;;;;;;;17.90;7.88;;;;;;;2.50;79.04;102318.88;5010645;28;20042;-48
2021/04/18 05:15:24;;;;;;;18.88;7.00;;;;;;;2.59;79.07;102325.72;5011563;28;20041;-46
2021/04/18 05:17:51;;;;;;;18.60;7.00;;;;;;;2.61;79.57;102330.03;5011943;28;20180;-49
2021/04/18 05:20:18;;;;;;;17.27;7.63;;;;;;;2.58;79.90;102319.69;5014442;28;20100;-48
2021/04/18 05:22:45;;;;;;;16.38;8.10;;;;;;;2.51;80.30;102331.84;5013415;28;20046;-47
2021/04/18 05:25:13;;;;;;;15.38;7.03;;;;;;;2.53;79.48;102324.88;5014330;28;20057;-52
2021/04/18 05:27:39;;;;;;;16.25;7.57;;;;;;;2.66;78.87;102335.22;5013634;28;20156;-47
2021/04/18 05:30:06;;;;;;;16.23;7.13;;;;;;;2.65;79.35;102329.13;5013298;28;20068;-49
2021/04/18 05:32:36;;;;;;;15.73;7.82;;;;;;;2.62;80.01;102329.16;5013339;28;20103;-47
2021/04/18 05:35:08;;;;;;;16.10;7.15;;;;;;;2.65;80.09;102330.88;5013580;28;20049;-48
2021/04/18 05:37:35;;;;;;;13.98;6.80;;;;;;;2.65;79.67;102326.53;5013738;28;20136;-51
2021/04/18 05:40:02;;;;;;;17.48;8.98;;;;;;;2.62;80.33;102323.97;5012776;28;20050;-54
2021/04/18 05:42:28;;;;;;;16.15;7.68;;;;;;;2.71;80.84;102330.81;5011850;28;20125;-54
2021/04/18 05:44:55;;;;;;;16.92;7.88;;;;;;;2.84;80.09;102318.59;5013242;28;20048;-51
2021/04/18 05:47:22;;;;;;;16.23;8.02;;;;;;;2.82;79.86;102318.63;5013255;28;20046;-53
2021/04/18 05:49:48;;;;;;;15.80;7.68;;;;;;;2.86;80.62;102312.50;5012091;28;20463;-48
2021/04/18 05:52:15;;;;;;;19.15;8.88;;;;;;;2.90;81.32;102318.53;5010280;28;20570;-48
2021/04/18 05:54:41;;;;;;;16.80;8.15;;;;;;;2.90;81.50;102317.66;5011594;28;20056;-50
2021/04/18 05:57:07;;;;;;;19.25;8.77;;;;;;;2.96;81.37;102317.59;5012989;28;20042;-48
2021/04/18 05:59:34;;;;;;;20.33;9.15;;;;;;;2.97;82.79;102317.59;5013073;28;20058;-48
2021/04/18 06:02:00;;;;;;;18.23;8.80;;;;;;;3.03;82.92;102317.53;5011479;28;20133;-49
2021/04/18 06:04:27;;;;;;;23.60;9.73;;;;;;;3.07;83.94;102310.56;5011706;28;20473;-48
2021/04/18 06:06:54;;;;;;;24.00;10.27;;;;;;;3.16;84.12;102312.19;5028469;28;20073;-52
2021/04/18 06:09:20;;;;;;;20.48;9.60;;;;;;;3.24;84.41;102309.53;5012089;28;20046;-48
2021/04/18 06:11:47;;;;;;;23.73;10.32;;;;;;;3.31;84.72;102301.66;5012775;28;20052;-49
2021/04/18 06:14:13;;;;;;;17.30;8.57;;;;;;;3.38;84.17;102308.50;5012250;28;20045;-48
2021/04/18 06:16:39;;;;;;;17.92;9.20;;;;;;;3.49;83.96;102305.78;5012340;28;20056;-48
2021/04/18 06:19:06;;;;;;;19.83;9.75;;;;;;;3.60;83.96;102318.66;5013224;28;20041;-46
2021/04/18 06:21:32;;;;;;;17.15;8.05;;;;;;;3.69;83.03;102321.09;5012643;28;20057;-51
2021/04/18 06:23:59;;;;;;;17.00;8.57;;;;;;;3.82;83.59;102327.03;4995225;28;20492;-47
2021/04/18 06:26:25;;;;;;;18.98;9.18;;;;;;;3.93;83.08;102323.41;5013031;28;20053;-45
2021/04/18 06:28:51;;;;;;;16.58;9.45;;;;;;;4.04;83.07;102326.75;5010931;28;20072;-49
2021/04/18 06:31:18;;;;;;;21.33;9.15;;;;;;;4.19;82.75;102336.09;5010054;28;20065;-47
2021/04/18 06:33:44;;;;;;;22.35;9.95;;;;;;;4.27;82.57;102333.34;5012586;28;20378;-48
2021/04/18 06:36:13;;;;;;;18.88;9.40;;;;;;;4.40;82.47;102329.69;5012733;28;20104;-49
2021/04/18 06:38:39;;;;;;;20.27;9.05;;;;;;;4.51;82.38;102330.38;5013008;28;20064;-48
2021/04/18 06:41:08;;;;;;;21.65;8.82;;;;;;;4.71;81.58;102334.41;5011930;28;20046;-48
2021/04/18 06:43:36;;;;;;;19.67;8.57;;;;;;;4.83;81.67;102334.19;5011532;28;20049;-45
2021/04/18 06:46:05;;;;;;;18.67;9.02;;;;;;;4.98;79.19;102317.41;5017819;28;20053;-48
2021/04/18 06:48:38;;;;;;;17.45;8.57;;;;;;;5.13;78.65;102316.28;5011848;28;20069;-48
2021/04/18 06:51:05;;;;;;;17.60;8.33;;;;;;;5.26;78.69;102303.84;5011228;28;20128;-50
2021/04/18 06:53:31;;;;;;;15.55;7.53;;;;;;;5.35;78.56;102305.44;5005490;28;20052;-49
2021/04/18 06:56:02;;;;;;;18.35;8.73;;;;;;;5.51;77.03;102298.16;5012396;28;20064;-49
2021/04/18 06:58:29;;;;;;;20.20;7.90;;;;;;;5.64;76.53;102296.13;5026702;28;20053;-48
2021/04/18 07:00:55;;;;;;;21.42;8.57;;;;;;;5.78;76.68;102294.09;5011159;28;20042;-48
2021/04/18 07:03:22;;;;;;;17.42;7.70;;;;;;;6.01;75.83;102297.97;5011091;28;20062;-45
2021/04/18 07:05:51;;;;;;;20.73;6.93;;;;;;;6.21;74.35;102290.53;5011452;28;20751;-48
2021/04/18 07:08:28;;;;;;;17.30;7.15;;;;;;;6.43;71.98;102292.63;4994872;28;20046;-51
2021/04/18 07:11:18;;;;;;;16.33;6.93;;;;;;;6.49;70.98;102289.88;5005678;28;20049;-49
2021/04/18 07:13:46;;;;;;;15.88;6.55;;;;;;;6.67;71.31;102287.69;5011437;28;20069;-49
2021/04/18 07:16:23;;;;;;;17.48;7.47;;;;;;;6.86;72.07;102294.16;4994978;28;20056;-50
2021/04/18 07:18:51;;;;;;;18.35;8.00;;;;;;;7.09;71.79;102298.75;5010327;28;20053;-47
2021/04/18 07:21:17;;;;;;;14.88;7.28;;;;;;;7.23;69.18;102310.63;5012219;28;20074;-50
2021/04/18 07:23:44;;;;;;;12.73;7.03;;;;;;;7.39;69.39;102306.66;5011057;28;20056;-47
2021/04/18 07:26:29;;;;;;;12.57;6.47;;;;;;;7.60;68.57;102305.16;5011742;28;20046;-48
2021/04/18 07:29:15;;;;;;;13.35;5.97;;;;;;;7.82;66.10;102315.00;5010870;28;20047;-50
2021/04/18 07:31:42;;;;;;;13.52;6.15;;;;;;;8.00;65.05;102318.81;5010791;28;20057;-50
2021/04/18 07:34:09;;;;;;;13.68;5.78;;;;;;;8.22;65.04;102316.41;5010907;28;20112;-49
2021/04/18 07:36:37;;;;;;;12.75;5.55;;;;;;;8.48;62.87;102314.75;5011859;28;20048;-49
2021/04/18 07:39:06;;;;;;;11.77;5.57;;;;;;;8.68;60.83;102310.59;5006400;28;20045;-50
2021/04/18 07:41:33;;;;;;;11.32;5.00;;;;;;;8.80;59.15;102310.19;5011735;28;20500;-49
2021/04/18 07:43:59;;;;;;;12.02;5.05;;;;;;;9.06;56.83;102305.78;5009346;28;20048;-46
2021/04/18 07:46:26;;;;;;;11.00;4.40;;;;;;;9.32;56.60;102304.84;5010168;28;20054;-50
2021/04/18 07:48:52;;;;;;;12.10;3.85;;;;;;;9.53;52.35;102290.06;5011166;28;20061;-47
2021/04/18 07:51:19;;;;;;;12.15;3.83;;;;;;;9.59;52.66;102289.81;5010162;28;20496;-51
2021/04/18 07:53:46;;;;;;;9.25;3.70;;;;;;;9.74;52.75;102293.63;5011458;28;20046;-53
2021/04/18 07:56:14;;;;;;;8.48;3.88;;;;;;;10.00;52.24;102290.91;5011093;28;20041;-46
2021/04/18 07:58:42;;;;;;;10.25;3.92;;;;;;;10.28;50.75;102283.63;5011345;28;20131;-49
2021/04/18 08:01:08;;;;;;;10.13;3.85;;;;;;;10.51;51.87;102288.88;5009507;28;20497;-50
2021/04/18 08:03:36;;;;;;;11.25;4.07;;;;;;;10.80;50.79;102283.22;5008015;28;20051;-49
2021/04/18 08:06:04;;;;;;;10.48;4.60;;;;;;;10.92;51.51;102279.22;5010197;28;20038;-49
2021/04/18 08:08:44;;;;;;;11.13;3.80;;;;;;;11.10;49.93;102277.53;5009563;28;20049;-48
2021/04/18 08:11:12;;;;;;;9.80;4.40;;;;;;;11.30;51.70;102284.56;5010604;28;20137;-52
2021/04/18 08:13:45;;;;;;;10.75;3.58;;;;;;;11.56;48.11;102281.63;5009595;28;20056;-49
2021/04/18 08:16:11;;;;;;;11.80;4.30;;;;;;;11.47;45.21;102278.50;5011378;28;20046;-48
2021/04/18 08:18:42;;;;;;;10.48;4.15;;;;;;;11.32;44.23;102276.59;5010286;28;20441;-51
2021/04/18 08:21:34;;;;;;;7.65;3.88;;;;;;;11.50;44.47;102283.63;5009183;28;20053;-46
2021/04/18 08:24:02;;;;;;;10.63;4.13;;;;;;;11.57;44.23;102281.56;5004933;28;20046;-47
2021/04/18 08:26:31;;;;;;;8.27;4.05;;;;;;;11.62;45.39;102281.38;5009454;28;20053;-51
2021/04/18 08:28:58;;;;;;;10.80;4.07;;;;;;;11.73;45.73;102288.78;5010591;28;20113;-46
2021/04/18 08:31:29;;;;;;;11.25;4.00;;;;;;;11.82;44.68;102280.41;5025540;28;20060;-46
2021/04/18 08:34:00;;;;;;;11.57;4.40;;;;;;;11.96;45.21;102282.44;5006454;28;20073;-49
2021/04/18 08:36:32;;;;;;;8.48;3.70;;;;;;;12.47;43.25;102283.41;5006950;28;20059;-54
2021/04/18 08:38:59;;;;;;;8.98;3.85;;;;;;;12.67;42.64;102274.50;4998930;28;20117;-49
2021/04/18 08:41:41;;;;;;;9.40;4.20;;;;;;;12.60;41.93;102280.19;5009822;28;20082;-48
2021/04/18 08:44:29;;;;;;;8.43;3.75;;;;;;;12.64;42.68;102277.28;5010143;28;20041;-49
2021/04/18 08:46:55;;;;;;;11.45;4.30;;;;;;;12.94;41.26;102276.63;5009752;28;20056;-51
2021/04/18 08:49:29;;;;;;;9.57;3.83;;;;;;;12.87;41.44;102277.91;5010074;28;20469;-51
2021/04/18 08:51:56;;;;;;;10.18;3.80;;;;;;;12.90;41.34;102284.78;5009068;28;20042;-48
2021/04/18 08:54:24;;;;;;;8.57;3.60;;;;;;;13.03;41.72;102280.56;5009193;28;20050;-48
2021/04/18 08:56:56;;;;;;;8.82;4.00;;;;;;;13.13;41.03;102278.28;5008119;28;20052;-49
2021/04/18 08:59:23;;;;;;;9.63;3.63;;;;;;;13.18;41.34;102274.50;5010435;28;20041;-47
2021/04/18 09:02:00;;;;;;;8.85;3.38;;;;;;;13.30;40.82;102277.41;5009493;28;20488;-48
2021/04/18 09:04:28;;;;;;;9.30;3.40;;;;;;;13.45;39.85;102267.81;5010896;28;20058;-47
2021/04/18 09:06:55;;;;;;;8.45;3.13;;;;;;;13.59;39.57;102264.41;5009315;28;20038;-50
2021/04/18 09:09:22;;;;;;;7.43;3.05;;;;;;;13.98;38.72;102263.97;5009889;28;20046;-54
2021/04/18 09:11:48;;;;;;;7.60;3.25;;;;;;;14.02;36.86;102262.84;5009694;28;20089;-48
2021/04/18 09:14:23;;;;;;;7.32;2.90;;;;;;;14.26;37.86;102257.09;5008946;28;20061;-50
2021/04/18 09:16:50;;;;;;;8.10;3.38;;;;;;;14.72;37.05;102255.34;5007261;28;20057;-48
2021/04/18 09:19:25;;;;;;;10.27;3.53;;;;;;;15.01;35.31;102251.75;5010180;28;20049;-49
2021/04/18 09:21:54;;;;;;;10.65;3.35;;;;;;;15.17;35.68;102251.66;5009426;28;20046;-48
2021/04/18 09:24:20;;;;;;;8.35;3.50;;;;;;;15.18;35.80;102247.19;5009289;28;20512;-47
2021/04/18 09:26:58;;;;;;;9.80;3.30;;;;;;;15.36;35.68;102256.63;5010179;28;20050;-50
2021/04/18 09:29:27;;;;;;;11.20;3.33;;;;;;;15.66;35.05;102250.31;5009179;28;20042;-50
2021/04/18 09:31:58;;;;;;;6.57;2.78;;;;;;;15.91;34.94;102255.88;5008703;28;20374;-51
2021/04/18 09:34:25;;;;;;;7.78;3.35;;;;;;;15.71;33.37;102250.03;5003228;28;20084;-50
2021/04/18 09:36:54;;;;;;;7.88;2.83;;;;;;;15.99;33.60;102245.59;5009205;28;20034;-51
2021/04/18 09:39:20;;;;;;;7.93;3.45;;;;;;;16.37;32.21;102250.16;5009117;28;20485;-47
2021/04/18 09:41:47;;;;;;;8.70;2.92;;;;;;;16.33;31.92;102238.91;5009207;28;20053;-47
2021/04/18 09:44:29;;;;;;;7.43;3.03;;;;;;;16.33;32.15;102241.56;5009796;28;20050;-56
2021/04/18 09:47:05;;;;;;;6.97;3.33;;;;;;;16.64;33.16;102236.78;5009913;28;20042;-47
2021/04/18 09:49:49;;;;;;;10.20;3.17;;;;;;;16.80;32.86;102238.41;5011481;28;20046;-48
2021/04/18 09:52:28;;;;;;;7.88;3.10;;;;;;;16.64;32.46;102239.44;5010614;28;20493;-56
2021/04/18 09:55:06;;;;;;;8.43;3.60;;;;;;;17.05;31.94;102249.03;5011985;28;20524;-48
2021/04/18 09:57:40;;;;;;;8.00;3.67;;;;;;;17.16;31.88;102244.78;5011926;28;20050;-49
2021/04/18 10:00:11;;;;;;;6.90;3.38;;;;;;;17.24;32.94;102239.75;5011734;28;20053;-49
2021/04/18 10:02:38;;;;;;;11.07;4.10;;;;;;;17.29;31.44;102237.63;5014648;28;20064;-49
2021/04/18 10:05:08;;;;;;;8.18;3.55;;;;;;;17.44;31.72;102226.81;5013872;28;20057;-48
2021/04/18 10:07:35;;;;;;;8.85;3.17;;;;;;;17.71;30.86;102227.47;5015186;28;20516;-51
2021/04/18 10:10:01;;;;;;;9.13;3.78;;;;;;;17.88;31.63;102231.53;5015200;28;20058;-57
2021/04/18 10:12:28;;;;;;;9.25;3.60;;;;;;;18.28;29.71;102227.72;4998041;28;20061;-56
2021/04/18 10:15:08;;;;;;;8.88;3.38;;;;;;;18.33;29.77;102233.53;4997653;28;20045;-56
2021/04/18 10:17:36;;;;;;;9.35;3.92;;;;;;;18.08;28.76;102223.91;5014154;28;20397;-56
2021/04/18 10:20:04;;;;;;;9.98;3.75;;;;;;;18.39;29.11;102218.91;5013912;28;20108;-53
2021/04/18 10:22:31;;;;;;;9.60;3.80;;;;;;;18.25;29.17;102222.63;5013945;28;20057;-56
2021/04/18 10:24:58;;;;;;;9.30;3.90;;;;;;;18.62;29.08;102227.78;5013771;28;20493;-56
2021/04/18 10:27:27;;;;;;;8.38;3.78;;;;;;;18.58;28.88;102226.31;5013658;28;20053;-48
2021/04/18 10:29:54;;;;;;;9.82;5.40;;;;;;;18.95;32.14;102218.16;4997438;28;20057;-49
2021/04/18 10:32:22;;;;;;;12.82;6.20;;;;;;;19.09;33.34;102219.72;5015081;28;20180;-57
2021/04/18 10:34:51;;;;;;;12.07;5.53;;;;;;;19.28;32.25;102224.44;5013718;28;20037;-57
2021/04/18 10:37:18;;;;;;;10.88;5.57;;;;;;;19.28;32.45;102219.09;5013892;28;20049;-56
2021/04/18 10:39:45;;;;;;;10.98;5.50;;;;;;;19.33;31.85;102213.38;5014943;28;20396;-57
2021/04/18 10:42:11;;;;;;;11.23;5.25;;;;;;;19.58;29.84;102206.91;5014782;28;20100;-56
2021/04/18 10:44:38;;;;;;;9.90;5.05;;;;;;;19.48;30.34;102204.09;5013481;28;20053;-57
2021/04/18 10:47:08;;;;;;;11.15;5.03;;;;;;;19.40;29.75;102203.91;5013178;28;20049;-56
2021/04/18 10:49:34;;;;;;;13.52;5.05;;;;;;;19.39;29.75;102196.88;5013406;28;20543;-57
2021/04/18 10:52:01;;;;;;;10.77;4.65;;;;;;;20.02;29.87;102197.03;5013134;28;20129;-56
2021/04/18 10:54:27;;;;;;;12.85;4.93;;;;;;;19.97;29.85;102193.88;5013202;28;20481;-57
2021/04/18 10:56:54;;;;;;;11.57;5.20;;;;;;;20.23;30.09;102193.50;5012839;28;20050;-57
2021/04/18 10:59:21;;;;;;;10.95;5.68;;;;;;;20.02;31.24;102194.34;5013248;28;20509;-50
2021/04/18 11:01:48;;;;;;;10.38;5.07;;;;;;;20.22;30.32;102186.47;5014161;28;20358;-56
2021/04/18 11:04:18;;;;;;;11.43;5.75;;;;;;;20.17;29.66;102183.38;5012651;28;20058;-52
2021/04/18 11:06:45;;;;;;;14.00;6.10;;;;;;;20.49;29.60;102177.06;5013294;28;20493;-50
2021/04/18 11:09:12;;;;;;;11.73;6.05;;;;;;;20.43;29.40;102175.78;5012663;28;20057;-54
2021/04/18 11:11:39;;;;;;;12.07;6.15;;;;;;;20.86;28.32;102171.19;5014020;28;20085;-51
2021/04/18 11:14:05;;;;;;;9.93;5.28;;;;;;;21.18;28.46;102172.84;5012431;28;20557;-57
2021/04/18 11:16:32;;;;;;;10.18;5.20;;;;;;;20.88;28.28;102171.91;5013750;28;20124;-57
2021/04/18 11:18:59;;;;;;;11.63;5.28;;;;;;;20.68;28.06;102173.63;5028537;28;20135;-52
2021/04/18 11:21:26;;;;;;;10.68;5.18;;;;;;;20.82;29.51;102173.31;5013538;28;20048;-50
2021/04/18 11:23:54;;;;;;;10.35;5.30;;;;;;;21.02;28.35;102171.53;5012769;28;20046;-50
2021/04/18 11:26:21;;;;;;;9.52;5.10;;;;;;;20.69;28.17;102168.19;5013871;28;20038;-51
2021/04/18 11:28:47;;;;;;;12.30;5.60;;;;;;;20.58;28.05;102173.59;5012406;28;20532;-57